Time;durP1;ratioP1;P1;durP2;ratioP2;P2;SDS_P1;SDS_P2;PMS_P1;PMS_P2;Temp;Humidity;BMP_temperature;BMP_pressure;BME280_temperature;BME280_humidity;BME280_pressure;Samples;Min_cycle;Max_cycle;Signal;HPM_P1;HPM_P2
2023/05/20 00:04:31;;;;;;;5.20;2.00;;;;;;;17.28;60.67;96677.19;10458019;28;20048;-28
2023/05/20 00:09:31;;;;;;;2.78;2.00;;;;;;;17.13;60.38;96654.38;10459020;28;20055;-28
2023/05/20 00:14:31;;;;;;;3.83;2.50;;;;;;;17.26;61.12;96676.34;10460571;28;20485;-28
2023/05/20 00:19:32;;;;;;;3.00;2.20;;;;;;;17.25;61.12;96674.66;10461514;28;20128;-27
2023/05/20 00:24:32;;;;;;;2.83;2.30;;;;;;;17.25;60.71;96677.19;10462029;28;20647;-27
2023/05/20 00:29:32;;;;;;;2.50;2.20;;;;;;;17.29;60.42;96671.28;10459808;28;20493;-28
2023/05/20 00:34:33;;;;;;;3.13;2.20;;;;;;;17.29;60.61;96666.25;10461640;28;20025;-28
2023/05/20 00:39:33;;;;;;;2.30;2.10;;;;;;;17.27;60.49;96667.91;10440418;28;20890;-27
2023/05/20 00:44:33;;;;;;;3.43;2.07;;;;;;;17.25;60.59;96659.50;10459291;28;20037;-28
2023/05/20 00:49:34;;;;;;;2.67;2.23;;;;;;;17.23;60.40;96656.94;10460110;28;20412;-28
2023/05/20 00:54:35;;;;;;;3.80;2.13;;;;;;;17.25;60.27;96645.13;10461479;28;21014;-28
2023/05/20 00:59:36;;;;;;;2.63;2.10;;;;;;;17.23;60.29;96641.75;10458227;28;20044;-28
2023/05/20 01:04:40;;;;;;;6.47;2.75;;;;;;;17.24;60.25;96637.56;10455332;28;20059;-27
2023/05/20 01:09:41;;;;;;;2.92;2.08;;;;;;;17.25;60.29;96634.19;10458302;28;20771;-27
2023/05/20 01:14:47;;;;;;;2.95;2.38;;;;;;;17.23;61.03;96648.53;10438935;28;20120;-28
2023/05/20 01:19:49;;;;;;;3.30;2.03;;;;;;;17.22;61.05;96626.56;10455035;28;20065;-28
2023/05/20 01:24:52;;;;;;;3.22;2.20;;;;;;;17.21;60.98;96632.47;10454421;28;20492;-28
2023/05/20 01:29:53;;;;;;;3.40;2.13;;;;;;;17.24;60.51;96632.50;10454350;28;20033;-29
2023/05/20 01:34:55;;;;;;;3.85;2.17;;;;;;;17.23;60.40;96629.13;10456179;28;20512;-28
2023/05/20 01:39:56;;;;;;;2.10;1.88;;;;;;;17.22;60.12;96622.38;10441345;28;20037;-28
2023/05/20 01:44:58;;;;;;;4.38;2.35;;;;;;;17.22;60.52;96619.84;10453976;28;20068;-28
2023/05/20 01:49:58;;;;;;;3.58;2.20;;;;;;;17.22;60.70;96624.03;10461478;28;20471;-28
2023/05/20 01:55:00;;;;;;;3.40;2.17;;;;;;;17.20;60.51;96615.59;10456846;28;20068;-29
2023/05/20 02:00:01;;;;;;;2.35;1.77;;;;;;;17.20;60.48;96610.56;10459093;28;20564;-28
2023/05/20 02:05:02;;;;;;;2.58;2.08;;;;;;;17.20;60.29;96610.56;10460077;28;20523;-28
2023/05/20 02:10:03;;;;;;;2.85;1.90;;;;;;;17.19;60.43;96603.81;10439405;28;20450;-28
2023/05/20 02:15:03;;;;;;;5.03;2.15;;;;;;;17.19;60.44;96598.75;10434427;28;20040;-28
2023/05/20 02:20:06;;;;;;;2.58;2.33;;;;;;;17.19;61.01;96598.75;10460764;28;20039;-27
2023/05/20 02:25:09;;;;;;;2.75;2.30;;;;;;;17.18;61.21;96608.03;10460033;28;20044;-27
2023/05/20 02:30:10;;;;;;;2.55;1.90;;;;;;;17.21;60.83;96597.06;10434063;28;20029;-27
2023/05/20 02:35:10;;;;;;;2.33;2.03;;;;;;;17.23;60.18;96603.00;10457439;28;20488;-27
2023/05/20 02:40:13;;;;;;;2.90;1.97;;;;;;;17.21;60.65;96600.44;10438897;28;20410;-27
2023/05/20 02:45:14;;;;;;;4.38;2.50;;;;;;;17.20;60.56;96596.22;10459140;28;20037;-27
2023/05/20 02:50:14;;;;;;;2.63;2.17;;;;;;;17.19;60.77;96598.75;10455565;28;20029;-27
2023/05/20 02:55:15;;;;;;;3.22;2.20;;;;;;;17.19;60.29;96584.44;10437799;28;20033;-28
2023/05/20 03:00:15;;;;;;;3.88;2.25;;;;;;;17.17;60.64;96592.84;10440820;28;20032;-27
2023/05/20 03:05:16;;;;;;;1.92;1.75;;;;;;;17.18;60.48;96576.81;10446875;28;20039;-27
2023/05/20 03:10:16;;;;;;;2.73;1.73;;;;;;;17.17;60.54;96585.25;10455458;28;20033;-27
2023/05/20 03:15:17;;;;;;;2.13;1.80;;;;;;;17.16;60.46;96578.50;10431607;28;20435;-28
2023/05/20 03:20:19;;;;;;;2.67;2.25;;;;;;;17.15;60.57;96569.22;10447969;28;20085;-27
2023/05/20 03:25:21;;;;;;;3.55;2.55;;;;;;;17.16;60.93;96566.69;10444703;28;20036;-27
2023/05/20 03:30:22;;;;;;;3.33;2.33;;;;;;;17.18;60.87;96566.69;10449824;28;20029;-27
2023/05/20 03:35:22;;;;;;;2.50;2.10;;;;;;;17.17;61.00;96562.47;10466418;28;20522;-28
2023/05/20 03:40:23;;;;;;;2.05;1.85;;;;;;;17.20;60.29;96554.91;10431746;28;20036;-27
2023/05/20 03:45:23;;;;;;;2.53;1.77;;;;;;;17.18;60.42;96562.50;10447618;28;20032;-27
2023/05/20 03:50:42;;;;;;;2.63;2.05;;;;;;;17.15;60.62;96567.53;10454021;28;20039;-27
2023/05/20 03:55:43;;;;;;;2.72;1.92;;;;;;;17.16;60.38;96570.91;10440932;28;20028;-27
2023/05/20 04:00:46;;;;;;;3.10;1.85;;;;;;;17.16;60.70;96568.38;10433828;28;20025;-27
2023/05/20 04:05:46;;;;;;;2.50;1.88;;;;;;;17.14;60.46;96559.97;10457629;28;20436;-27
2023/05/20 04:10:56;;;;;;;2.45;2.08;;;;;;;17.14;60.95;96560.78;10458982;28;20028;-28
2023/05/20 04:15:56;;;;;;;2.47;1.85;;;;;;;17.13;60.13;96560.78;10430717;28;20033;-27
2023/05/20 04:20:58;;;;;;;2.67;1.85;;;;;;;17.12;60.44;96557.41;10431228;28;20099;-28
2023/05/20 04:26:01;;;;;;;3.05;1.90;;;;;;;17.13;60.69;96553.19;10448638;28;20033;-28
2023/05/20 04:31:03;;;;;;;3.08;2.08;;;;;;;17.15;60.47;96554.06;10439099;28;20049;-27
2023/05/20 04:36:10;;;;;;;2.40;1.90;;;;;;;17.13;60.90;96558.25;10445451;28;20024;-28
2023/05/20 04:41:11;;;;;;;2.17;1.92;;;;;;;17.18;60.27;96564.16;10450965;28;20061;-27
2023/05/20 04:46:12;;;;;;;3.25;1.80;;;;;;;17.12;60.38;96551.50;10438070;28;20060;-27
2023/05/20 04:51:13;;;;;;;3.90;2.10;;;;;;;17.15;60.44;96559.94;10437646;28;20017;-28
2023/05/20 04:56:14;;;;;;;2.00;1.43;;;;;;;17.15;60.49;96564.19;10469425;28;20547;-28
2023/05/20 05:01:14;;;;;;;2.17;1.98;;;;;;;17.14;60.14;96570.09;10465743;28;20295;-28
2023/05/20 05:06:15;;;;;;;2.25;2.05;;;;;;;17.15;60.17;96561.66;10444361;28;20052;-27
2023/05/20 05:11:16;;;;;;;2.03;1.83;;;;;;;17.16;60.38;96563.34;10459421;28;20027;-28
2023/05/20 05:16:16;;;;;;;2.65;1.70;;;;;;;17.20;59.89;96548.16;10444803;28;20493;-28
2023/05/20 05:21:17;;;;;;;2.60;1.50;;;;;;;17.21;60.36;96543.94;10450948;28;20029;-28
2023/05/20 05:26:21;;;;;;;3.03;1.92;;;;;;;17.16;60.12;96532.97;10450466;28;20029;-28
2023/05/20 05:31:21;;;;;;;2.00;1.80;;;;;;;17.20;60.32;96540.56;10436265;28;20060;-27
2023/05/20 05:36:24;;;;;;;4.03;2.15;;;;;;;17.20;60.91;96537.19;10463069;28;20071;-28
2023/05/20 05:41:25;;;;;;;2.42;1.77;;;;;;;17.21;60.59;96541.41;10450288;28;20033;-28
2023/05/20 05:46:26;;;;;;;2.22;1.58;;;;;;;17.24;60.13;96528.78;10435661;28;20037;-28
2023/05/20 05:51:27;;;;;;;2.37;1.60;;;;;;;17.25;60.14;96530.47;10440967;28;20029;-28
2023/05/20 05:56:28;;;;;;;2.92;1.75;;;;;;;17.25;60.48;96533.81;10450267;28;20349;-28
2023/05/20 06:01:30;;;;;;;2.33;2.10;;;;;;;17.23;59.95;96520.31;10434863;28;20057;-28
2023/05/20 06:06:30;;;;;;;3.05;1.75;;;;;;;17.25;59.99;96517.81;10464462;28;20064;-28
2023/05/20 06:11:31;;;;;;;2.20;1.95;;;;;;;17.23;60.31;96512.75;10436306;28;20033;-28
2023/05/20 06:16:31;;;;;;;2.78;2.10;;;;;;;17.23;60.13;96516.97;10433969;28;20037;-28
2023/05/20 06:21:33;;;;;;;2.20;1.70;;;;;;;17.24;60.25;96526.25;10445831;28;20071;-27
2023/05/20 06:26:34;;;;;;;2.40;1.73;;;;;;;17.23;60.51;96519.50;10466545;28;20033;-28
2023/05/20 06:31:34;;;;;;;2.70;2.22;;;;;;;17.25;60.79;96513.56;10434089;28;20021;-28
2023/05/20 06:36:36;;;;;;;4.18;1.80;;;;;;;17.24;60.81;96506.00;10445076;28;20051;-28
2023/05/20 06:41:39;;;;;;;6.23;2.40;;;;;;;17.28;60.88;96507.69;10443092;28;20068;-28
2023/05/20 06:46:43;;;;;;;4.00;1.90;;;;;;;17.27;60.91;96498.41;10435334;28;20329;-28
2023/05/20 06:51:47;;;;;;;6.25;2.38;;;;;;;17.27;60.79;96490.81;10444847;28;20129;-28
2023/05/20 06:56:47;;;;;;;2.40;1.90;;;;;;;17.24;60.93;96494.19;10444405;28;20120;-27
2023/05/20 07:01:48;;;;;;;2.55;1.90;;;;;;;17.26;60.37;96497.56;10448262;28;20040;-28
2023/05/20 07:06:49;;;;;;;2.65;2.00;;;;;;;17.22;61.29;96505.13;10452623;28;20035;-28
2023/05/20 07:11:50;;;;;;;4.20;2.10;;;;;;;17.24;61.12;96490.81;10455816;28;20025;-28
2023/05/20 07:16:51;;;;;;;4.82;2.35;;;;;;;17.26;61.13;96496.72;10462477;28;20032;-27
2023/05/20 07:21:51;;;;;;;8.40;3.25;;;;;;;17.20;61.34;96489.13;10463602;28;20095;-28
2023/05/20 07:27:09;;;;;;;6.40;2.53;;;;;;;17.25;61.10;96482.41;10443994;28;20056;-28
2023/05/20 07:32:10;;;;;;;11.50;3.05;;;;;;;17.29;61.18;96467.22;10446131;28;20032;-28
2023/05/20 07:37:14;;;;;;;6.30;2.60;;;;;;;17.26;61.89;96464.66;10441638;28;20052;-27
2023/05/20 07:42:16;;;;;;;9.63;3.60;;;;;;;17.25;62.04;96457.91;10446760;28;20053;-28
2023/05/20 07:47:20;;;;;;;7.40;2.80;;;;;;;17.26;61.92;96458.78;10441277;28;20115;-28
2023/05/20 07:52:20;;;;;;;6.27;2.73;;;;;;;17.24;61.69;96461.28;10449131;28;20028;-28
2023/05/20 07:57:21;;;;;;;6.95;2.88;;;;;;;17.26;61.72;96458.78;10464421;28;20281;-27
2023/05/20 08:02:21;;;;;;;3.90;2.55;;;;;;;17.26;61.47;96459.59;10430835;28;20493;-28
2023/05/20 08:07:22;;;;;;;10.75;4.65;;;;;;;17.26;61.48;96453.72;10439519;28;20075;-28
2023/05/20 08:12:27;;;;;;;4.35;2.40;;;;;;;17.26;61.37;96456.25;10441784;28;20127;-28
2023/05/20 08:17:27;;;;;;;3.87;2.37;;;;;;;17.25;61.51;96445.28;10448683;28;20115;-27
2023/05/20 08:22:27;;;;;;;4.57;2.67;;;;;;;17.22;61.30;96452.00;10463721;28;20778;-28
2023/05/20 08:27:29;;;;;;;5.25;2.70;;;;;;;17.24;61.79;96451.19;10453801;28;20307;-28
2023/05/20 08:32:30;;;;;;;3.85;2.22;;;;;;;17.23;61.52;96454.56;10455006;28;20092;-27
2023/05/20 08:37:31;;;;;;;5.70;2.33;;;;;;;17.23;61.88;96453.72;10454544;28;20634;-28
2023/05/20 08:42:33;;;;;;;3.03;2.30;;;;;;;17.23;62.30;96461.31;10453562;28;20037;-27
2023/05/20 08:47:34;;;;;;;3.33;2.38;;;;;;;17.22;62.66;96472.25;10454108;28;20040;-28
2023/05/20 08:52:36;;;;;;;2.72;2.30;;;;;;;17.22;62.82;96462.13;10461086;28;20033;-27
2023/05/20 08:57:37;;;;;;;3.45;2.42;;;;;;;17.21;61.92;96460.44;10457907;28;20064;-28
2023/05/20 09:02:38;;;;;;;4.18;2.30;;;;;;;17.25;61.52;96468.03;10479196;28;20555;-28
2023/05/20 09:07:41;;;;;;;4.05;2.00;;;;;;;17.24;61.46;96463.00;10460641;28;20048;-28
2023/05/20 09:12:41;;;;;;;3.83;2.15;;;;;;;17.26;61.88;96461.31;10470434;28;20108;-29
2023/05/20 09:17:42;;;;;;;3.97;2.37;;;;;;;17.27;61.47;96465.53;10459794;28;20037;-28
2023/05/20 09:22:42;;;;;;;3.43;2.23;;;;;;;17.25;62.07;96462.97;10454059;28;20314;-28
2023/05/20 09:27:42;;;;;;;5.33;2.87;;;;;;;17.24;61.66;96452.88;10469513;28;20033;-28
2023/05/20 09:32:43;;;;;;;5.20;2.80;;;;;;;17.25;62.41;96452.84;10454393;28;20108;-28
2023/05/20 09:37:46;;;;;;;2.63;2.40;;;;;;;17.26;61.88;96458.78;10462110;28;20048;-28
2023/05/20 09:42:52;;;;;;;4.60;2.05;;;;;;;17.24;61.90;96451.19;10462001;28;20309;-28
2023/05/20 09:47:53;;;;;;;3.78;2.15;;;;;;;17.18;62.72;96435.16;10455964;28;20032;-27
2023/05/20 09:52:54;;;;;;;3.13;2.30;;;;;;;17.21;62.83;96446.13;10457367;28;20035;-28
2023/05/20 09:57:55;;;;;;;3.63;1.98;;;;;;;17.24;62.82;96445.28;10464528;28;20544;-28
2023/05/20 10:02:56;;;;;;;3.30;2.22;;;;;;;17.24;62.67;96440.22;10452765;28;20029;-28
2023/05/20 10:08:15;;;;;;;3.90;2.08;;;;;;;17.23;62.50;96438.56;10462395;28;20032;-28
2023/05/20 10:13:25;;;;;;;3.20;2.10;;;;;;;17.23;62.40;96434.31;10468591;28;20051;-28
2023/05/20 10:18:44;;;;;;;2.35;2.13;;;;;;;17.22;62.30;96437.69;10463899;28;20055;-28
2023/05/20 10:23:44;;;;;;;3.67;2.00;;;;;;;17.24;62.36;96438.53;10454291;28;20460;-28
2023/05/20 10:28:45;;;;;;;2.25;1.70;;;;;;;17.20;62.39;96429.25;10457146;28;20037;-27
2023/05/20 10:33:46;;;;;;;3.25;2.20;;;;;;;17.23;62.40;96429.25;10463485;28;20059;-28
2023/05/20 10:38:57;;;;;;;3.28;2.30;;;;;;;17.23;62.68;96428.44;10453913;28;20037;-28
2023/05/20 10:44:05;;;;;;;2.20;1.80;;;;;;;17.21;61.92;96419.97;10455296;28;20406;-28
2023/05/20 10:49:16;;;;;;;3.20;2.17;;;;;;;17.21;62.09;96419.97;10460382;28;20028;-28
2023/05/20 10:54:17;;;;;;;2.38;1.95;;;;;;;17.22;63.04;96426.72;10458190;28;20027;-28
2023/05/20 10:59:18;;;;;;;2.85;2.22;;;;;;;17.22;63.14;96416.59;10459921;28;20029;-28
2023/05/20 11:04:19;;;;;;;2.13;1.88;;;;;;;17.24;62.66;96414.94;10459211;28;20037;-27
2023/05/20 11:09:19;;;;;;;3.17;1.92;;;;;;;17.23;62.51;96418.31;10457682;28;20044;-27
2023/05/20 11:14:20;;;;;;;7.47;2.40;;;;;;;17.21;62.23;96405.66;10459227;28;20435;-27
2023/05/20 11:19:21;;;;;;;2.60;1.75;;;;;;;17.22;62.41;96412.41;10473933;28;20412;-27
2023/05/20 11:24:26;;;;;;;2.17;1.95;;;;;;;17.22;62.29;96396.34;10457412;28;20028;-28
2023/05/20 11:29:27;;;;;;;2.72;1.63;;;;;;;17.18;62.58;96379.50;10449700;28;20052;-28
2023/05/20 11:34:35;;;;;;;2.38;1.77;;;;;;;17.24;61.13;96377.00;10451287;28;20489;-29
2023/05/20 11:39:36;;;;;;;4.93;1.92;;;;;;;17.23;61.79;96377.84;10452139;28;20040;-29
2023/05/20 11:44:43;;;;;;;4.35;2.47;;;;;;;17.24;62.16;96370.22;10467263;28;20032;-28
2023/05/20 11:49:47;;;;;;;7.90;2.85;;;;;;;17.24;62.59;96366.88;10474270;28;20053;-28
2023/05/20 11:54:54;;;;;;;6.75;2.63;;;;;;;17.23;62.15;96360.94;10463737;28;20025;-28
2023/05/20 11:59:54;;;;;;;9.27;3.35;;;;;;;17.22;63.12;96350.81;10464023;28;20033;-29
2023/05/20 12:04:55;;;;;;;4.13;2.78;;;;;;;17.23;63.11;96348.31;10466962;28;20041;-28
2023/05/20 12:09:55;;;;;;;3.70;2.50;;;;;;;17.21;62.57;96350.00;10486490;28;20458;-28
2023/05/20 12:14:55;;;;;;;2.63;2.10;;;;;;;17.25;62.40;96346.59;10478084;28;20395;-29
2023/05/20 12:19:56;;;;;;;2.90;2.30;;;;;;;17.24;62.23;96344.09;10470507;28;20481;-28
2023/05/20 12:24:56;;;;;;;4.70;2.40;;;;;;;17.21;62.87;96339.88;10470788;28;20287;-28
2023/05/20 12:29:56;;;;;;;3.37;2.33;;;;;;;17.18;62.37;96314.59;10462439;28;20113;-28
2023/05/20 12:34:57;;;;;;;7.10;2.37;;;;;;;17.23;62.15;96312.06;10463181;28;20033;-27
2023/05/20 12:39:58;;;;;;;5.57;2.47;;;;;;;17.22;62.35;96307.81;10463109;28;20036;-27
2023/05/20 12:44:58;;;;;;;4.40;2.63;;;;;;;17.25;62.53;96305.31;10462584;28;20044;-26
2023/05/20 12:49:59;;;;;;;2.77;1.97;;;;;;;17.23;61.92;96291.81;10467583;28;20128;-26
2023/05/20 12:54:59;;;;;;;13.07;2.72;;;;;;;17.25;61.77;96300.25;10463200;28;20056;-28
2023/05/20 12:59:59;;;;;;;11.57;2.80;;;;;;;17.29;61.45;96302.75;10456971;28;20409;-27
2023/05/20 13:05:00;;;;;;;12.40;3.13;;;;;;;17.30;63.03;96308.66;10463871;28;20077;-28
2023/05/20 13:10:01;;;;;;;3.53;3.00;;;;;;;17.29;63.85;96302.75;10456591;28;20381;-27
2023/05/20 13:15:02;;;;;;;8.77;3.08;;;;;;;17.29;62.69;96314.56;10454929;28;20119;-26
2023/05/20 13:20:03;;;;;;;3.30;2.70;;;;;;;17.29;62.84;96309.50;10455342;28;20032;-27
2023/05/20 13:25:04;;;;;;;4.57;2.80;;;;;;;17.29;61.73;96302.75;10455796;28;20037;-25
2023/05/20 13:30:05;;;;;;;5.75;2.80;;;;;;;17.29;62.68;96296.84;10454580;28;20061;-27
2023/05/20 13:35:06;;;;;;;3.92;2.85;;;;;;;17.28;62.08;96295.16;10458899;28;20035;-27
2023/05/20 13:40:08;;;;;;;7.35;2.38;;;;;;;17.30;61.53;96290.94;10458922;28;20040;-25
2023/05/20 13:45:08;;;;;;;3.72;2.50;;;;;;;17.32;61.50;96290.09;10453843;28;20033;-25
2023/05/20 13:50:09;;;;;;;6.18;2.97;;;;;;;17.35;61.74;96286.72;10458264;28;20033;-27
2023/05/20 13:55:10;;;;;;;3.28;2.30;;;;;;;17.36;61.48;96290.97;10459555;28;20382;-25
2023/05/20 14:00:11;;;;;;;3.37;2.60;;;;;;;17.38;61.40;96286.75;10453279;28;20056;-27
2023/05/20 14:05:12;;;;;;;4.28;2.80;;;;;;;17.37;62.29;96285.91;10453862;28;20037;-26
2023/05/20 14:10:12;;;;;;;4.88;2.75;;;;;;;17.39;62.78;96273.22;10439769;28;20602;-27
2023/05/20 14:15:13;;;;;;;4.73;3.70;;;;;;;17.42;62.83;96269.00;10470552;28;20036;-27
2023/05/20 14:20:13;;;;;;;5.25;3.22;;;;;;;17.40;62.53;96274.94;10473697;28;20029;-27
2023/05/20 14:25:14;;;;;;;6.63;3.67;;;;;;;17.39;61.86;96273.22;10461663;28;20393;-28
2023/05/20 14:30:14;;;;;;;9.48;4.65;;;;;;;17.39;62.09;96274.09;10453943;28;20040;-26
2023/05/20 14:35:15;;;;;;;9.27;4.38;;;;;;;17.40;62.66;96280.00;10452011;28;20035;-27
2023/05/20 14:40:16;;;;;;;12.98;4.45;;;;;;;17.44;62.69;96281.66;10452813;28;20497;-29
2023/05/20 14:45:18;;;;;;;7.63;4.37;;;;;;;17.41;62.55;96289.28;10453435;28;20082;-27
2023/05/20 14:50:19;;;;;;;12.63;4.03;;;;;;;17.39;62.63;96280.81;10451484;28;20275;-27
2023/05/20 14:55:19;;;;;;;9.60;4.80;;;;;;;17.39;63.07;96288.41;10453886;28;20039;-27
2023/05/20 15:00:20;;;;;;;8.43;4.03;;;;;;;17.40;62.64;96288.41;10450909;28;20037;-28
2023/05/20 15:05:21;;;;;;;7.40;4.00;;;;;;;17.39;62.70;96288.41;10453429;28;20052;-28
2023/05/20 15:10:21;;;;;;;8.07;4.43;;;;;;;17.39;63.67;96294.34;10450054;28;20029;-28
2023/05/20 15:15:21;;;;;;;7.60;4.70;;;;;;;17.38;63.84;96302.78;10468538;28;20033;-28
2023/05/20 15:20:22;;;;;;;17.13;4.80;;;;;;;17.41;63.51;96291.81;10449759;28;20045;-28
2023/05/20 15:25:22;;;;;;;9.47;4.70;;;;;;;17.37;63.58;96295.19;10456970;28;20032;-28
2023/05/20 15:30:23;;;;;;;7.93;4.57;;;;;;;17.36;63.54;96290.97;10450153;28;20401;-28
2023/05/20 15:35:25;;;;;;;11.88;3.88;;;;;;;17.36;63.74;96293.50;10455321;28;20033;-27
2023/05/20 15:40:26;;;;;;;9.05;4.68;;;;;;;17.36;63.46;96298.56;10457365;28;20045;-28
2023/05/20 15:45:27;;;;;;;8.18;4.68;;;;;;;17.35;64.02;96301.91;10449723;28;20044;-28
2023/05/20 15:50:27;;;;;;;3.90;3.50;;;;;;;17.36;63.34;96308.69;10454293;28;20055;-30
2023/05/20 15:55:27;;;;;;;7.27;3.63;;;;;;;17.34;63.65;96308.63;10460809;28;20047;-28
2023/05/20 16:00:28;;;;;;;6.93;3.30;;;;;;;17.33;63.26;96293.47;10449812;28;20103;-28
2023/05/20 16:05:28;;;;;;;4.00;3.43;;;;;;;17.34;63.41;96300.22;10454372;28;20786;-27
2023/05/20 16:10:31;;;;;;;6.40;4.23;;;;;;;17.34;63.54;96295.16;10449583;28;20044;-28
2023/05/20 16:15:35;;;;;;;7.28;3.65;;;;;;;17.35;64.18;96296.84;10449362;28;20036;-28
2023/05/20 16:20:35;;;;;;;7.72;4.00;;;;;;;17.36;64.02;96294.34;10449468;28;20033;-28
2023/05/20 16:25:35;;;;;;;5.30;3.30;;;;;;;17.38;63.40;96306.97;10451326;28;20037;-28
2023/05/20 16:30:36;;;;;;;5.33;3.50;;;;;;;17.37;63.25;96300.25;10449566;28;20036;-27
2023/05/20 16:35:36;;;;;;;4.30;2.97;;;;;;;17.35;63.29;96292.63;10462568;28;20041;-27
2023/05/20 16:40:36;;;;;;;3.80;3.30;;;;;;;17.36;63.36;96293.50;10456701;28;20071;-28
2023/05/20 16:45:37;;;;;;;5.67;3.73;;;;;;;17.36;63.09;96289.28;10459965;28;20021;-28
2023/05/20 16:50:37;;;;;;;6.37;4.33;;;;;;;17.36;63.61;96294.34;10476583;28;20098;-28
2023/05/20 16:55:37;;;;;;;6.53;3.70;;;;;;;17.35;64.05;96292.63;10468099;28;20044;-28
2023/05/20 17:00:38;;;;;;;5.38;3.97;;;;;;;17.35;63.87;96291.78;10464555;28;20033;-27
2023/05/20 17:05:38;;;;;;;8.23;3.90;;;;;;;17.35;63.59;96299.38;10461275;28;20416;-27
2023/05/20 17:10:38;;;;;;;3.20;2.67;;;;;;;17.36;62.60;96301.09;10465736;28;20295;-27
2023/05/20 17:15:39;;;;;;;4.17;3.77;;;;;;;17.20;63.72;96279.16;10461014;28;20283;-27
2023/05/20 17:20:39;;;;;;;6.33;5.27;;;;;;;17.35;64.40;96299.38;10475931;28;20408;-28
2023/05/20 17:25:40;;;;;;;6.22;5.25;;;;;;;17.38;64.69;96296.84;10484132;28;20299;-29
2023/05/20 17:30:40;;;;;;;7.23;4.77;;;;;;;17.40;64.33;96305.31;10465940;28;20028;-28
2023/05/20 17:35:40;;;;;;;6.63;4.80;;;;;;;17.38;63.68;96306.97;10468054;28;20040;-28
2023/05/20 17:40:41;;;;;;;5.78;4.90;;;;;;;17.39;64.31;96316.25;10471742;28;20029;-28
2023/05/20 17:45:41;;;;;;;6.53;4.93;;;;;;;17.38;63.98;96317.97;10461078;28;20036;-28
2023/05/20 17:50:42;;;;;;;6.60;5.05;;;;;;;17.38;64.40;96325.53;10465799;28;20039;-27
2023/05/20 17:55:45;;;;;;;10.10;5.22;;;;;;;17.38;64.22;96322.16;10471717;28;20028;-28
2023/05/20 18:00:46;;;;;;;10.50;5.00;;;;;;;17.38;64.37;96332.28;10456386;28;20037;-26
2023/05/20 18:05:47;;;;;;;7.55;5.40;;;;;;;17.38;64.66;96327.22;10462470;28;20037;-27
2023/05/20 18:10:47;;;;;;;6.85;4.93;;;;;;;17.37;64.38;96333.13;10455407;28;20451;-28
2023/05/20 18:15:47;;;;;;;7.20;5.53;;;;;;;17.37;64.27;96335.66;10463279;28;20161;-28
2023/05/20 18:20:48;;;;;;;6.40;5.07;;;;;;;17.35;64.18;96323.00;10448473;28;20334;-28
2023/05/20 18:25:48;;;;;;;9.30;5.23;;;;;;;17.37;65.13;96326.41;10456515;28;20029;-28
2023/05/20 18:30:49;;;;;;;9.00;5.23;;;;;;;17.32;64.91;96317.09;10448072;28;20140;-28
2023/05/20 18:35:52;;;;;;;6.83;4.63;;;;;;;17.40;63.92;96328.09;10450996;28;20489;-29
2023/05/20 18:40:53;;;;;;;8.30;5.00;;;;;;;17.38;64.37;96328.06;10450748;28;20295;-28
2023/05/20 18:45:53;;;;;;;10.30;5.27;;;;;;;17.38;64.17;96327.22;10447149;28;20559;-28
2023/05/20 18:50:55;;;;;;;6.90;4.55;;;;;;;17.38;63.62;96337.34;10452208;28;20036;-28
2023/05/20 18:55:59;;;;;;;6.70;5.18;;;;;;;17.38;64.27;96342.41;10449438;28;20033;-28
2023/05/20 19:01:00;;;;;;;8.60;4.75;;;;;;;17.37;64.00;96336.53;10447010;28;20743;-28
2023/05/20 19:06:00;;;;;;;8.00;5.43;;;;;;;17.37;63.69;96335.66;10445287;28;20036;-28
2023/05/20 19:11:01;;;;;;;10.40;5.10;;;;;;;17.37;64.82;96335.66;10450120;28;20036;-28
2023/05/20 19:16:01;;;;;;;11.77;4.80;;;;;;;17.38;64.46;96324.69;10454179;28;20568;-28
2023/05/20 19:21:01;;;;;;;7.78;5.22;;;;;;;17.38;64.66;96322.16;10471581;28;20078;-28
2023/05/20 19:26:02;;;;;;;7.00;4.63;;;;;;;17.38;64.45;96327.22;10460250;28;20045;-28
2023/05/20 19:31:02;;;;;;;9.77;5.30;;;;;;;17.38;65.48;96332.28;10457035;28;20286;-28
2023/05/20 19:36:03;;;;;;;6.97;5.13;;;;;;;17.42;65.08;96336.50;10451043;28;20068;-28
2023/05/20 19:41:03;;;;;;;7.47;5.00;;;;;;;17.38;64.74;96337.34;10448837;28;20037;-28
2023/05/20 19:46:05;;;;;;;5.33;3.80;;;;;;;17.39;64.16;96333.97;10455328;28;20044;-28
2023/05/20 19:51:05;;;;;;;6.82;5.10;;;;;;;17.38;64.13;96338.19;10455511;28;20039;-28
2023/05/20 19:56:08;;;;;;;7.17;4.50;;;;;;;17.39;64.86;96334.81;10448947;28;20531;-28
2023/05/20 20:01:09;;;;;;;8.70;5.40;;;;;;;17.37;64.89;96344.09;10444698;28;20818;-28
2023/05/20 20:06:10;;;;;;;6.65;4.68;;;;;;;17.37;65.06;96335.66;10451504;28;20091;-28
2023/05/20 20:11:12;;;;;;;6.43;5.10;;;;;;;17.34;64.56;96326.34;10452120;28;20045;-27
2023/05/20 20:16:12;;;;;;;6.00;4.10;;;;;;;17.36;64.94;96334.84;10461331;28;20052;-27
2023/05/20 20:21:13;;;;;;;5.33;4.83;;;;;;;17.36;64.68;96336.50;10466388;28;20127;-28
2023/05/20 20:26:14;;;;;;;6.30;4.30;;;;;;;17.35;63.69;96332.25;10466956;28;20040;-28
2023/05/20 20:31:14;;;;;;;4.80;4.00;;;;;;;17.36;64.75;96331.44;10453370;28;20029;-27
2023/05/20 20:36:15;;;;;;;8.05;5.07;;;;;;;17.39;65.52;96328.91;10477873;28;20283;-28
2023/05/20 20:41:19;;;;;;;6.93;5.15;;;;;;;17.38;65.88;96325.53;10477161;28;20025;-27
2023/05/20 20:46:20;;;;;;;9.65;5.05;;;;;;;17.38;65.57;96332.28;10473417;28;20048;-28
2023/05/20 20:51:20;;;;;;;8.63;4.63;;;;;;;17.37;64.87;96317.94;10456391;28;20630;-28
2023/05/20 20:56:20;;;;;;;5.37;3.53;;;;;;;17.35;64.42;96310.34;10455750;28;20508;-28
2023/05/20 21:01:24;;;;;;;6.27;4.47;;;;;;;17.33;63.79;96304.44;10455279;28;20277;-27
2023/05/20 21:06:24;;;;;;;5.45;4.35;;;;;;;17.33;64.43;96298.53;10455384;28;20186;-28
2023/05/20 21:11:25;;;;;;;4.70;4.20;;;;;;;17.35;64.72;96296.84;10459448;28;20125;-28
2023/05/20 21:16:25;;;;;;;5.80;3.63;;;;;;;17.35;63.04;96296.84;10455104;28;20116;-28
2023/05/20 21:21:25;;;;;;;7.13;4.10;;;;;;;17.34;63.96;96301.03;10458048;28;20033;-28
2023/05/20 21:26:26;;;;;;;6.37;4.40;;;;;;;17.31;63.36;96296.00;10454717;28;20037;-28
2023/05/20 21:31:26;;;;;;;5.13;3.83;;;;;;;17.34;62.75;96295.16;10454266;28;20025;-28
2023/05/20 21:36:26;;;;;;;6.57;4.20;;;;;;;17.36;64.74;96288.44;10461712;28;20041;-28
2023/05/20 21:41:27;;;;;;;6.37;4.40;;;;;;;17.37;66.01;96282.53;10466090;28;20554;-28
2023/05/20 21:46:27;;;;;;;4.70;4.30;;;;;;;17.38;65.96;96284.19;10453552;28;20287;-28
2023/05/20 21:51:27;;;;;;;5.20;3.90;;;;;;;17.28;65.59;96254.69;10458354;28;20029;-29
2023/05/20 21:56:28;;;;;;;5.07;3.90;;;;;;;17.35;64.61;96264.81;10458188;28;20045;-28
2023/05/20 22:01:28;;;;;;;4.37;3.93;;;;;;;17.35;63.81;96262.28;10453284;28;20295;-28
2023/05/20 22:06:28;;;;;;;3.83;3.33;;;;;;;17.35;62.45;96262.28;10453295;28;20032;-28
2023/05/20 22:11:29;;;;;;;4.80;4.23;;;;;;;17.34;62.69;96247.91;10453236;28;20045;-28
2023/05/20 22:16:29;;;;;;;3.60;3.27;;;;;;;17.34;62.33;96244.56;10452090;28;20044;-28
2023/05/20 22:21:29;;;;;;;5.37;3.23;;;;;;;17.34;62.06;96247.09;10456062;28;20354;-28
2023/05/20 22:26:30;;;;;;;5.30;3.43;;;;;;;17.34;61.77;96235.25;10456722;28;20102;-28
2023/05/20 22:31:31;;;;;;;4.03;3.10;;;;;;;17.33;61.65;96230.22;10451667;28;20404;-28
2023/05/20 22:36:34;;;;;;;3.80;3.50;;;;;;;17.34;61.37;96236.97;10454846;28;20291;-28
2023/05/20 22:41:35;;;;;;;4.78;3.03;;;;;;;17.28;62.14;96224.34;10456695;28;20035;-26
2023/05/20 22:46:35;;;;;;;5.40;4.33;;;;;;;17.35;65.69;96236.97;10451256;28;20037;-28
2023/05/20 22:51:37;;;;;;;5.30;4.70;;;;;;;17.36;65.79;96238.69;10459792;28;20283;-28
2023/05/20 22:56:37;;;;;;;5.70;4.00;;;;;;;17.38;65.25;96231.06;10455770;28;20037;-27
2023/05/20 23:01:38;;;;;;;5.50;3.77;;;;;;;17.37;64.90;96226.84;10451136;28;20496;-27
2023/05/20 23:06:38;;;;;;;5.00;3.50;;;;;;;17.37;64.71;96230.25;10451894;28;20115;-27
2023/05/20 23:11:38;;;;;;;5.93;4.40;;;;;;;17.36;65.11;96228.56;10455364;28;20052;-27
2023/05/20 23:16:40;;;;;;;5.80;3.80;;;;;;;17.37;64.99;96222.66;10450997;28;20041;-27
2023/05/20 23:21:41;;;;;;;4.95;3.72;;;;;;;17.38;64.79;96220.94;10452749;28;20290;-27